Portada
METAR-TAF:

METAR-TAF

Aeroports :

Grand Rapids/Itasca County Airport (Gordon Newstrom Field)

Grand Rapids, Minnesota, Estats Units d'Amèrica

latitud: 47-13N, longitud: 093-31W, altitud: 413 m

Observació

L'informe es va fer fa 1 hora i 9 minuts, a les 18:08 UTC
Vent 10 kt del Nord/Nord-Oest
Temperatura 10°C
Humitat 66%
Pressió 1021 hPa
Visibilitat: 16.1 km
Cel ennuvolat a una alçada de 3100 ft
Cel ennuvolat a una alçada de 4200 ft
Cel cobert a una alçada de 4900 ft

METAR: KGPZ 211808Z AUTO 34010KT 10SM BKN031 BKN042 OVC049 10/04 A3015 RMK AO2

Hora: 14:17 (19:17 UTC)


TAF: manca

Observacions i pronòstics meteorològics de més de 4000 aeroports (METAR i TAF).

Les estacions disponibles són els punts grocs i vermells al mapa.

Posi el ratolí al punt desitjat per veure el nom de l'estació.

Feu clic per veure les observacions i els pronòstics meteorològics.

Per canviar el mapa: feu clic els botons verds amb una creu de color negre per apropar; al botó verd amb un guió per allunyar la imatge; o en les fletxes verdes per a mapes adjacents.


METAR-TAF: